createdAt,value
2017-12-16T00:00:56.665Z,80.20
2017-12-16T00:03:24.353Z,79.80
2017-12-16T00:05:51.972Z,80.60
2017-12-16T00:08:19.583Z,80.50
2017-12-16T00:10:47.268Z,80.60
2017-12-16T00:13:14.880Z,80.70
2017-12-16T00:15:42.560Z,80.00
2017-12-16T00:18:10.246Z,79.80
2017-12-16T00:20:37.848Z,80.00
2017-12-16T00:23:05.468Z,80.70
2017-12-16T00:25:33.145Z,80.90
2017-12-16T00:28:00.757Z,79.20
2017-12-16T00:30:28.381Z,79.80
2017-12-16T00:32:56.075Z,80.00
2017-12-16T00:40:31.224Z,81.10
2017-12-16T00:42:58.835Z,78.60
2017-12-16T00:45:26.524Z,78.40
2017-12-16T00:50:22.587Z,78.70
2017-12-16T00:52:50.255Z,77.80
2017-12-16T00:55:17.871Z,77.60
2017-12-16T01:00:13.185Z,77.60
2017-12-16T01:02:40.819Z,78.20
2017-12-16T01:05:08.433Z,79.50
2017-12-16T01:07:36.126Z,80.40
2017-12-16T01:10:03.749Z,80.80
2017-12-16T01:12:31.367Z,80.90
2017-12-16T01:14:59.037Z,81.60
2017-12-16T01:17:26.654Z,81.90
2017-12-16T01:19:54.271Z,82.10
2017-12-16T01:22:21.965Z,81.10
2017-12-16T01:24:49.579Z,81.30
2017-12-16T01:27:17.192Z,81.30
2017-12-16T01:29:44.876Z,80.80
2017-12-16T01:32:12.496Z,80.80
2017-12-16T01:34:51.928Z,81.40
2017-12-16T01:42:33.406Z,80.60
2017-12-16T01:45:01.127Z,80.40
2017-12-16T01:47:28.745Z,78.90
2017-12-16T01:52:24.027Z,79.00
2017-12-16T01:54:51.641Z,78.90
2017-12-16T01:57:19.258Z,77.60
2017-12-16T01:59:46.956Z,76.80
2017-12-16T02:02:14.572Z,77.90
2017-12-16T02:04:42.193Z,78.50
2017-12-16T02:07:09.859Z,79.00
2017-12-16T02:09:37.473Z,79.40
2017-12-16T02:12:05.100Z,79.40
2017-12-16T02:14:32.792Z,79.20
2017-12-16T02:17:00.416Z,79.00
2017-12-16T02:19:28.040Z,79.90
2017-12-16T02:21:55.728Z,80.00
2017-12-16T02:24:23.343Z,79.10
2017-12-16T02:26:50.966Z,78.60
2017-12-16T02:29:18.665Z,79.40
2017-12-16T02:31:47.239Z,79.00
2017-12-16T02:34:14.859Z,77.90
2017-12-16T02:36:42.558Z,78.20
2017-12-16T02:39:12.076Z,78.70
2017-12-16T02:41:39.682Z,78.30
2017-12-16T02:44:07.366Z,78.90
2017-12-16T02:49:16.164Z,78.20
2017-12-16T02:51:43.789Z,78.00
2017-12-16T02:54:11.398Z,78.30
2017-12-16T02:56:39.071Z,78.50
2017-12-16T02:59:07.211Z,78.40
2017-12-16T03:01:34.829Z,78.40
2017-12-16T03:06:41.235Z,79.00
2017-12-16T03:11:36.519Z,78.40
2017-12-16T03:14:04.129Z,78.20
2017-12-16T03:16:31.820Z,78.00
2017-12-16T03:18:59.438Z,78.10
2017-12-16T03:23:54.820Z,78.80
2017-12-16T03:26:22.444Z,78.30
2017-12-16T03:28:50.058Z,77.80
2017-12-16T03:31:18.556Z,78.70
2017-12-16T03:36:14.752Z,78.10
2017-12-16T03:38:42.428Z,77.70
2017-12-16T03:41:10.046Z,78.80
2017-12-16T03:43:37.656Z,79.40
2017-12-16T03:46:05.338Z,79.50
2017-12-16T03:48:32.959Z,79.50
2017-12-16T03:51:00.578Z,80.10
2017-12-16T03:53:28.258Z,81.60
2017-12-16T03:55:55.874Z,82.40
2017-12-16T04:00:51.175Z,81.40
2017-12-16T04:06:01.126Z,81.10
2017-12-16T04:08:28.749Z,80.40
2017-12-16T04:10:57.343Z,80.40
2017-12-16T04:13:25.011Z,80.00
2017-12-16T04:15:52.630Z,79.80
2017-12-16T04:18:20.250Z,80.00
2017-12-16T04:20:48.872Z,80.60
2017-12-16T04:25:44.142Z,81.70
2017-12-16T04:28:11.811Z,81.50
2017-12-16T04:30:39.425Z,81.70
2017-12-16T04:33:07.776Z,81.40
2017-12-16T04:35:35.464Z,81.70
2017-12-16T04:38:03.085Z,81.20
2017-12-16T04:40:31.530Z,80.60
2017-12-16T04:42:59.202Z,80.30
2017-12-16T04:45:26.816Z,80.90
2017-12-16T04:47:54.435Z,81.10
2017-12-16T04:53:00.962Z,81.60
2017-12-16T04:55:28.635Z,80.90
2017-12-16T04:57:56.252Z,81.10
2017-12-16T05:00:23.876Z,80.90
2017-12-16T05:02:51.934Z,81.20
2017-12-16T05:05:19.555Z,81.50
2017-12-16T05:07:48.028Z,80.90
2017-12-16T05:12:43.358Z,80.20
2017-12-16T05:15:10.977Z,80.00
2017-12-16T05:17:39.639Z,79.50
2017-12-16T05:20:07.257Z,80.20
2017-12-16T05:22:34.885Z,80.60
2017-12-16T05:25:02.551Z,80.50
2017-12-16T05:27:30.187Z,80.30
2017-12-16T05:29:57.803Z,81.00
2017-12-16T05:32:25.500Z,81.70
2017-12-16T05:34:53.120Z,82.00
2017-12-16T05:39:48.450Z,81.60
2017-12-16T05:42:16.075Z,80.90
2017-12-16T05:44:43.686Z,81.30
2017-12-16T05:47:11.372Z,81.00
2017-12-16T05:49:38.997Z,80.50
2017-12-16T05:52:06.617Z,80.30
2017-12-16T05:54:34.313Z,81.20
2017-12-16T05:57:01.936Z,81.20
2017-12-16T05:59:29.555Z,81.40
2017-12-16T06:01:58.051Z,81.30
2017-12-16T06:04:25.672Z,80.50
2017-12-16T06:06:53.290Z,81.40
2017-12-16T06:09:20.986Z,82.10
2017-12-16T06:11:48.616Z,82.70
2017-12-16T06:14:16.226Z,83.30
2017-12-16T06:16:43.902Z,82.70
2017-12-16T06:21:51.536Z,82.80
2017-12-16T06:24:19.154Z,83.00
2017-12-16T06:26:46.780Z,81.90
2017-12-16T06:29:14.451Z,81.50
2017-12-16T06:31:42.070Z,81.00
2017-12-16T06:34:09.691Z,81.00
2017-12-16T06:36:37.384Z,80.90
2017-12-16T06:39:05.002Z,81.10
2017-12-16T06:41:32.627Z,81.00
2017-12-16T06:44:00.308Z,80.90
2017-12-16T06:46:28.776Z,81.00
2017-12-16T06:48:56.393Z,81.10
2017-12-16T06:51:24.092Z,81.00
2017-12-16T06:53:51.716Z,81.10
2017-12-16T06:56:19.332Z,80.50
2017-12-16T06:58:47.143Z,80.70
2017-12-16T07:01:15.727Z,80.60
2017-12-16T07:03:43.355Z,80.00
2017-12-16T07:06:11.051Z,80.10
2017-12-16T07:08:39.490Z,80.30
2017-12-16T07:11:07.111Z,80.80
2017-12-16T07:13:34.988Z,81.70
2017-12-16T07:16:02.611Z,82.10
2017-12-16T07:18:30.230Z,81.40
2017-12-16T07:23:25.570Z,81.50
2017-12-16T07:25:54.021Z,82.10
2017-12-16T07:28:21.723Z,81.00
2017-12-16T07:30:49.347Z,80.90
2017-12-16T07:35:44.647Z,80.20
2017-12-16T07:38:12.275Z,80.50
2017-12-16T07:43:19.081Z,80.20
2017-12-16T07:45:47.271Z,79.90
2017-12-16T07:48:14.828Z,78.80
2017-12-16T07:50:42.514Z,78.90
2017-12-16T07:55:37.784Z,79.50
2017-12-16T07:58:05.476Z,79.90
2017-12-16T08:03:00.722Z,79.30
2017-12-16T08:05:29.247Z,80.00
2017-12-16T08:07:56.874Z,79.50
2017-12-16T08:10:24.486Z,79.80
2017-12-16T08:12:52.185Z,80.30
2017-12-16T08:15:19.807Z,80.00
2017-12-16T08:17:47.434Z,80.70
2017-12-16T08:20:15.113Z,80.60
2017-12-16T08:22:42.746Z,79.70
2017-12-16T08:25:11.233Z,81.00
2017-12-16T08:27:38.949Z,80.40
2017-12-16T08:32:34.181Z,81.00
2017-12-16T08:35:01.853Z,81.00
2017-12-16T08:37:30.416Z,80.10
2017-12-16T08:39:58.050Z,80.20
2017-12-16T08:42:26.231Z,80.10
2017-12-16T08:44:53.769Z,81.20
2017-12-16T08:47:21.385Z,79.50
2017-12-16T08:49:49.059Z,79.80
2017-12-16T08:52:16.695Z,79.20
2017-12-16T08:54:44.312Z,78.70
2017-12-16T08:57:12.012Z,78.00
2017-12-16T08:59:39.638Z,78.00
2017-12-16T09:02:07.250Z,77.80
2017-12-16T09:04:34.928Z,78.10
2017-12-16T09:09:45.638Z,76.90
2017-12-16T09:12:13.281Z,76.40
2017-12-16T09:14:40.891Z,77.20
2017-12-16T09:19:37.084Z,77.10
2017-12-16T09:22:05.760Z,72.30
2017-12-16T09:24:33.462Z,73.30
2017-12-16T09:27:01.075Z,70.00
2017-12-16T09:29:28.706Z,74.40
2017-12-16T09:31:56.384Z,69.80
2017-12-16T09:34:24.007Z,72.40
2017-12-16T09:36:52.764Z,74.10
2017-12-16T09:39:20.448Z,75.10
2017-12-16T09:41:48.078Z,74.40
2017-12-16T09:44:15.716Z,74.50
2017-12-16T09:46:43.865Z,74.00
2017-12-16T09:49:12.038Z,73.90
2017-12-16T09:51:39.648Z,73.50
2017-12-16T09:54:07.339Z,72.60
2017-12-16T09:56:34.957Z,73.30
2017-12-16T09:59:02.578Z,71.40
2017-12-16T10:01:30.270Z,70.00
2017-12-16T10:03:57.904Z,69.30
2017-12-16T10:06:25.521Z,70.60
2017-12-16T10:08:53.201Z,70.80
2017-12-16T10:13:48.442Z,72.50
2017-12-16T10:16:18.067Z,71.60
2017-12-16T10:21:24.733Z,69.20
2017-12-16T10:23:52.362Z,73.50
2017-12-16T10:26:19.976Z,70.70
2017-12-16T10:28:47.676Z,66.50
2017-12-16T10:31:15.295Z,65.30
2017-12-16T10:33:42.937Z,63.40
2017-12-16T10:36:10.651Z,63.40
2017-12-16T10:38:38.268Z,65.90
2017-12-16T10:41:05.890Z,65.10
2017-12-16T10:43:33.651Z,64.70
2017-12-16T10:46:01.267Z,65.70
2017-12-16T10:48:28.888Z,66.50
2017-12-16T10:50:56.579Z,65.60
2017-12-16T10:53:24.215Z,62.20
2017-12-16T10:55:51.842Z,63.70
2017-12-16T10:58:19.536Z,62.90
2017-12-16T11:00:52.768Z,61.00
2017-12-16T11:03:20.448Z,61.90
2017-12-16T11:05:48.996Z,64.20
2017-12-16T11:08:16.623Z,65.60
2017-12-16T11:10:44.316Z,65.80
2017-12-16T11:13:11.938Z,67.20
2017-12-16T11:18:07.239Z,62.70
2017-12-16T11:20:34.855Z,65.00
2017-12-16T11:23:02.472Z,59.10
2017-12-16T11:25:30.995Z,56.60
2017-12-16T11:27:58.612Z,57.80
2017-12-16T11:30:26.349Z,56.20
2017-12-16T11:32:54.033Z,53.80
2017-12-16T11:37:49.272Z,55.40
2017-12-16T11:40:16.956Z,57.50
2017-12-16T11:42:44.574Z,59.20
2017-12-16T11:45:13.024Z,55.70
2017-12-16T11:50:19.811Z,59.20
2017-12-16T11:52:47.496Z,56.70
2017-12-16T11:55:23.841Z,52.70
2017-12-16T11:57:51.192Z,52.60
2017-12-16T12:00:18.811Z,53.00
2017-12-16T12:02:46.435Z,51.80
2017-12-16T12:05:15.097Z,56.10
2017-12-16T12:07:42.715Z,55.20
2017-12-16T12:10:10.342Z,54.30
2017-12-16T12:12:38.030Z,53.20
2017-12-16T12:15:05.653Z,52.30
2017-12-16T12:17:36.369Z,52.90
2017-12-16T12:20:03.390Z,50.70
2017-12-16T12:22:31.012Z,49.10
2017-12-16T12:24:58.626Z,48.50
2017-12-16T12:27:26.355Z,45.80
2017-12-16T12:29:53.971Z,49.60
2017-12-16T12:32:21.594Z,50.20
2017-12-16T12:34:49.293Z,48.10
2017-12-16T12:37:16.907Z,49.70
2017-12-16T12:39:44.610Z,52.90
2017-12-16T12:44:39.827Z,51.00
2017-12-16T12:47:07.453Z,48.80
2017-12-16T12:49:35.183Z,48.80
2017-12-16T12:52:02.803Z,50.70
2017-12-16T12:54:30.425Z,52.20
2017-12-16T12:56:58.119Z,52.40
2017-12-16T12:59:25.749Z,56.10
2017-12-16T13:01:53.364Z,52.30
2017-12-16T13:04:21.318Z,52.70
2017-12-16T13:06:48.953Z,53.30
2017-12-16T13:09:16.557Z,52.30
2017-12-16T13:14:23.330Z,52.30
2017-12-16T13:16:51.026Z,53.50
2017-12-16T13:19:18.676Z,52.70
2017-12-16T13:21:46.420Z,53.50
2017-12-16T13:24:15.068Z,55.20
2017-12-16T13:29:10.264Z,56.10
2017-12-16T13:31:37.967Z,56.10
2017-12-16T13:34:05.596Z,55.20
2017-12-16T13:36:33.254Z,56.90
2017-12-16T13:39:00.924Z,54.90
2017-12-16T13:41:28.544Z,55.70
2017-12-16T13:43:56.221Z,55.70
2017-12-16T13:48:51.730Z,58.90
2017-12-16T13:51:19.349Z,58.10
2017-12-16T13:53:47.057Z,57.90
2017-12-16T13:56:14.679Z,58.00
2017-12-16T13:58:42.297Z,59.00
2017-12-16T14:01:09.964Z,59.90
2017-12-16T14:03:37.589Z,60.10
2017-12-16T14:06:05.206Z,61.20
2017-12-16T14:08:32.912Z,60.40
2017-12-16T14:13:28.151Z,62.30
2017-12-16T14:15:55.825Z,61.40
2017-12-16T14:18:23.447Z,62.50
2017-12-16T14:20:51.059Z,61.80
2017-12-16T14:23:18.741Z,61.60
2017-12-16T14:25:46.352Z,60.50
2017-12-16T14:28:13.973Z,61.70
2017-12-16T14:30:41.674Z,61.10
2017-12-16T14:33:09.291Z,61.90
2017-12-16T14:40:43.705Z,61.90
2017-12-16T14:43:11.377Z,61.90
2017-12-16T14:45:39.927Z,60.20
2017-12-16T14:48:07.545Z,63.10
2017-12-16T14:53:02.880Z,66.00
2017-12-16T14:55:30.507Z,65.50
2017-12-16T14:57:58.196Z,65.60
2017-12-16T15:00:25.826Z,66.30
2017-12-16T15:02:53.440Z,67.10
2017-12-16T15:05:21.116Z,68.60
2017-12-16T15:07:48.756Z,68.90
2017-12-16T15:10:16.388Z,69.90
2017-12-16T15:12:44.127Z,68.90
2017-12-16T15:15:12.569Z,68.50
2017-12-16T15:17:40.205Z,68.40
2017-12-16T15:20:07.897Z,68.50
2017-12-16T15:22:35.520Z,68.30
2017-12-16T15:25:03.140Z,68.50
2017-12-16T15:27:30.842Z,68.40
2017-12-16T15:32:26.647Z,67.80
2017-12-16T15:34:54.157Z,68.60
2017-12-16T15:37:21.842Z,69.20
2017-12-16T15:39:49.462Z,69.60
2017-12-16T15:42:17.192Z,70.70
2017-12-16T15:44:44.811Z,70.70
2017-12-16T15:47:13.994Z,69.60
2017-12-16T15:49:41.451Z,69.50
2017-12-16T15:52:09.081Z,70.60
2017-12-16T15:57:05.360Z,71.60
2017-12-16T15:59:33.003Z,71.80
2017-12-16T16:02:00.624Z,72.20
2017-12-16T16:07:07.441Z,72.70
2017-12-16T16:09:35.204Z,73.00
2017-12-16T16:12:02.893Z,73.80
2017-12-16T16:14:30.522Z,74.40
2017-12-16T16:16:58.217Z,74.20
2017-12-16T16:19:25.867Z,73.60
2017-12-16T16:21:53.522Z,73.80
2017-12-16T16:24:22.017Z,74.30
2017-12-16T16:26:50.447Z,74.90
2017-12-16T16:29:18.079Z,74.60
2017-12-16T16:31:45.776Z,74.70
2017-12-16T16:36:54.182Z,76.40
2017-12-16T16:39:21.884Z,76.30
2017-12-16T16:41:49.509Z,76.30
2017-12-16T16:44:17.210Z,77.30
2017-12-16T16:46:44.894Z,77.60
2017-12-16T16:51:40.154Z,77.70
2017-12-16T16:54:07.780Z,77.70
2017-12-16T16:56:35.422Z,76.60
2017-12-16T16:59:03.103Z,77.80
2017-12-16T17:01:30.726Z,78.70
2017-12-16T17:03:58.358Z,81.10
2017-12-16T17:06:26.030Z,82.80
2017-12-16T17:08:53.650Z,84.40
2017-12-16T17:11:21.274Z,86.30
2017-12-16T17:13:48.987Z,86.80
2017-12-16T17:16:16.608Z,88.00
2017-12-16T17:18:44.242Z,87.90
2017-12-16T17:21:11.924Z,87.80
2017-12-16T17:23:39.552Z,88.80
2017-12-16T17:26:08.363Z,89.20
2017-12-16T17:28:36.073Z,88.80
2017-12-16T17:33:44.879Z,89.60
2017-12-16T17:36:12.503Z,90.10
2017-12-16T17:38:40.126Z,89.90
2017-12-16T17:41:07.835Z,89.60
2017-12-16T17:46:16.256Z,89.60
2017-12-16T17:48:43.897Z,89.90
2017-12-16T17:51:11.531Z,89.30
2017-12-16T17:53:40.176Z,89.50
2017-12-16T17:56:07.810Z,89.70
2017-12-16T17:58:35.887Z,90.00
2017-12-16T18:01:03.585Z,89.50
2017-12-16T18:03:31.209Z,88.70
2017-12-16T18:06:01.476Z,89.10
2017-12-16T18:08:28.951Z,89.00
2017-12-16T18:10:56.577Z,89.10
2017-12-16T18:13:24.208Z,89.10
2017-12-16T18:15:51.912Z,89.00
2017-12-16T18:18:19.538Z,88.90
2017-12-16T18:20:47.160Z,87.30
2017-12-16T18:23:14.868Z,87.90
2017-12-16T18:25:42.892Z,88.20
2017-12-16T18:28:10.516Z,88.10
2017-12-16T18:30:38.197Z,87.90
2017-12-16T18:33:05.823Z,86.70
2017-12-16T18:35:33.448Z,87.40
2017-12-16T18:38:02.692Z,87.50
2017-12-16T18:40:30.323Z,87.80
2017-12-16T18:42:57.943Z,88.50
2017-12-16T18:45:25.650Z,87.80
2017-12-16T18:47:53.306Z,87.60
2017-12-16T18:50:20.920Z,87.70
2017-12-16T18:52:48.599Z,87.70
2017-12-16T18:57:43.872Z,87.20
2017-12-16T19:02:51.608Z,87.60
2017-12-16T19:05:19.319Z,88.90
2017-12-16T19:07:46.936Z,86.70
2017-12-16T19:10:14.563Z,86.00
2017-12-16T19:12:42.243Z,87.40
2017-12-16T19:15:09.872Z,87.40
2017-12-16T19:17:37.503Z,87.20
2017-12-16T19:20:05.250Z,87.80
2017-12-16T19:25:04.557Z,87.90
2017-12-16T19:27:34.795Z,87.90
2017-12-16T19:32:30.067Z,86.80
2017-12-16T19:34:57.756Z,85.80
2017-12-16T19:37:25.397Z,86.00
2017-12-16T19:39:53.043Z,86.00
2017-12-16T19:42:21.575Z,85.90
2017-12-16T19:44:49.199Z,85.60
2017-12-16T19:47:16.825Z,85.10
2017-12-16T19:49:44.572Z,83.90
2017-12-16T19:52:12.198Z,83.90
2017-12-16T19:54:39.819Z,84.90
2017-12-16T19:57:07.522Z,85.50
2017-12-16T19:59:35.153Z,85.00
2017-12-16T20:07:09.774Z,83.50
2017-12-16T20:09:37.649Z,84.40
2017-12-16T20:12:05.456Z,86.20
2017-12-16T20:14:33.135Z,87.40
2017-12-16T20:17:00.761Z,88.00
2017-12-16T20:19:28.469Z,88.50
2017-12-16T20:21:56.234Z,89.00
2017-12-16T20:24:23.855Z,89.10
2017-12-16T20:26:51.562Z,88.90
2017-12-16T20:31:46.895Z,88.90
2017-12-16T20:34:14.749Z,89.10
2017-12-16T20:36:42.329Z,88.30
2017-12-16T20:39:10.214Z,88.20
2017-12-16T20:41:38.090Z,88.90
2017-12-16T20:44:05.725Z,89.30
2017-12-16T20:46:33.425Z,89.50
2017-12-16T20:49:01.135Z,89.70
2017-12-16T20:51:28.779Z,90.10
2017-12-16T20:56:37.271Z,89.40
2017-12-16T20:59:04.953Z,89.60
2017-12-16T21:01:32.761Z,89.30
2017-12-16T21:04:00.288Z,88.60
2017-12-16T21:06:27.923Z,87.50
2017-12-16T21:08:55.596Z,87.50
2017-12-16T21:11:23.312Z,87.70
2017-12-16T21:16:18.571Z,87.90
2017-12-16T21:18:46.277Z,89.10
2017-12-16T21:21:13.901Z,87.90
2017-12-16T21:23:41.528Z,88.20
2017-12-16T21:26:09.206Z,88.60
2017-12-16T21:28:36.969Z,89.00
2017-12-16T21:31:04.542Z,88.70
2017-12-16T21:33:32.163Z,88.20
2017-12-16T21:35:59.858Z,87.50
2017-12-16T21:38:27.483Z,87.70
2017-12-16T21:40:55.141Z,88.20
2017-12-16T21:43:23.069Z,88.60
2017-12-16T21:45:50.705Z,88.10
2017-12-16T21:48:18.326Z,87.30
2017-12-16T21:50:46.023Z,86.20
2017-12-16T21:53:13.671Z,85.90
2017-12-16T21:58:20.837Z,85.90
2017-12-16T22:00:48.464Z,85.30
2017-12-16T22:03:16.084Z,84.60
2017-12-16T22:05:44.800Z,84.00
2017-12-16T22:10:40.049Z,90.30
2017-12-16T22:13:07.727Z,85.60
2017-12-16T22:15:35.432Z,83.20
2017-12-16T22:18:03.046Z,82.30
2017-12-16T22:20:30.758Z,81.90
2017-12-16T22:25:26.014Z,83.40
2017-12-16T22:27:53.712Z,84.40
2017-12-16T22:30:21.479Z,85.80
2017-12-16T22:32:49.068Z,86.40
2017-12-16T22:35:16.773Z,86.60
2017-12-16T22:37:44.406Z,86.60
2017-12-16T22:40:12.214Z,87.20
2017-12-16T22:42:39.850Z,87.50
2017-12-16T22:45:07.482Z,87.50
2017-12-16T22:47:35.113Z,87.70
2017-12-16T22:50:03.638Z,88.40
2017-12-16T22:52:31.280Z,88.50
2017-12-16T22:54:58.894Z,88.90
2017-12-16T22:57:26.574Z,89.10
2017-12-16T22:59:54.206Z,88.80
2017-12-16T23:02:21.832Z,88.40
2017-12-16T23:04:49.528Z,88.20
2017-12-16T23:07:17.160Z,87.70
2017-12-16T23:09:44.789Z,87.90
2017-12-16T23:14:40.101Z,88.00
2017-12-16T23:17:07.754Z,88.20
2017-12-16T23:19:35.519Z,88.40
2017-12-16T23:24:43.158Z,88.10
2017-12-16T23:27:10.851Z,88.10
2017-12-16T23:29:38.478Z,87.70
2017-12-16T23:32:06.102Z,86.90
2017-12-16T23:34:33.803Z,87.10
2017-12-16T23:37:01.440Z,88.20
2017-12-16T23:39:29.060Z,88.60
2017-12-16T23:41:56.740Z,88.90
2017-12-16T23:44:24.367Z,89.00
2017-12-16T23:46:51.991Z,89.40
2017-12-16T23:51:47.328Z,88.90
2017-12-16T23:54:14.959Z,87.70
2017-12-16T23:56:42.638Z,87.50
2017-12-16T23:59:10.257Z,86.40
